Time;durP1;ratioP1;P1;durP2;ratioP2;P2;SDS_P1;SDS_P2;PMS_P1;PMS_P2;Temp;Humidity;BMP_temperature;BMP_pressure;BME280_temperature;BME280_humidity;BME280_pressure;Samples;Min_cycle;Max_cycle;Signal;HPM_P1;HPM_P2
2024/02/19 00:02:01;;;;;;;10.70;3.07;;;9.00;99.90;;;;;;5013664;28;20061;-51
2024/02/19 00:04:26;;;;;;;7.90;2.97;;;9.00;99.90;;;;;;5014515;28;20032;-52
2024/02/19 00:06:52;;;;;;;9.97;3.30;;;9.00;99.90;;;;;;5013142;28;20044;-51
2024/02/19 00:09:19;;;;;;;13.37;3.93;;;9.10;99.90;;;;;;5014117;28;20026;-52
2024/02/19 00:11:46;;;;;;;8.10;2.77;;;9.00;99.90;;;;;;5014314;28;20563;-51
2024/02/19 00:14:12;;;;;;;10.80;3.50;;;9.10;99.90;;;;;;5014324;28;20084;-52
2024/02/19 00:16:38;;;;;;;10.80;3.07;;;9.10;99.90;;;;;;5013050;28;20037;-52
2024/02/19 00:19:05;;;;;;;10.73;2.73;;;9.00;99.90;;;;;;5014105;28;20040;-52
2024/02/19 00:21:34;;;;;;;9.93;3.50;;;9.10;99.90;;;;;;5014297;28;20073;-53
2024/02/19 00:23:59;;;;;;;9.38;3.67;;;9.00;99.90;;;;;;5014080;28;20034;-51
2024/02/19 00:26:25;;;;;;;12.80;3.53;;;9.00;99.90;;;;;;5013872;28;20041;-51
2024/02/19 00:28:51;;;;;;;13.07;3.57;;;9.00;99.90;;;;;;5013776;28;20030;-52
2024/02/19 00:31:17;;;;;;;12.03;3.23;;;9.00;99.90;;;;;;5013924;28;20113;-50
2024/02/19 00:33:42;;;;;;;13.07;3.00;;;9.10;99.90;;;;;;5013829;28;20113;-50
2024/02/19 00:36:09;;;;;;;12.70;2.83;;;9.10;99.90;;;;;;5013862;28;20030;-50
2024/02/19 00:38:35;;;;;;;12.47;2.33;;;9.10;99.90;;;;;;5013726;28;20435;-51
2024/02/19 00:41:03;;;;;;;12.03;2.90;;;9.00;99.90;;;;;;5013555;28;20123;-53
2024/02/19 00:43:30;;;;;;;11.53;2.67;;;9.00;99.90;;;;;;5013716;28;20557;-50
2024/02/19 00:45:56;;;;;;;9.33;2.90;;;9.00;99.90;;;;;;5013689;28;20033;-50
2024/02/19 00:48:22;;;;;;;11.40;2.23;;;9.00;99.90;;;;;;5013568;28;20084;-50
2024/02/19 00:50:48;;;;;;;6.57;1.63;;;9.10;99.90;;;;;;5013327;28;20037;-52
2024/02/19 00:53:13;;;;;;;8.00;1.63;;;9.20;99.90;;;;;;5013386;28;20049;-51
2024/02/19 00:55:39;;;;;;;7.60;1.73;;;9.10;99.90;;;;;;5013473;28;20438;-53
2024/02/19 00:58:04;;;;;;;12.63;1.90;;;9.00;99.90;;;;;;5013384;28;20057;-50
2024/02/19 01:00:30;;;;;;;11.70;1.93;;;9.00;99.90;;;;;;5013221;28;20037;-51
2024/02/19 01:02:56;;;;;;;11.00;2.43;;;9.00;99.90;;;;;;5013336;28;20030;-50
2024/02/19 01:05:21;;;;;;;6.93;1.53;;;9.00;99.90;;;;;;5013116;28;20097;-50
2024/02/19 01:07:47;;;;;;;5.37;1.20;;;8.90;99.90;;;;;;5013215;28;20021;-50
2024/02/19 01:10:13;;;;;;;6.87;1.10;;;8.90;99.90;;;;;;5012957;28;20555;-48
2024/02/19 01:12:38;;;;;;;11.77;1.50;;;8.90;99.90;;;;;;5013106;28;20050;-52
2024/02/19 01:15:05;;;;;;;10.07;1.77;;;8.80;99.90;;;;;;5012885;28;20030;-49
2024/02/19 01:17:31;;;;;;;4.10;0.87;;;8.80;99.90;;;;;;5013055;28;20038;-50
2024/02/19 01:19:58;;;;;;;5.53;0.93;;;8.80;99.90;;;;;;5012726;28;20033;-50
2024/02/19 01:22:24;;;;;;;6.67;0.80;;;8.80;99.90;;;;;;5012885;28;20034;-49
2024/02/19 01:24:50;;;;;;;5.47;0.93;;;8.80;99.90;;;;;;5012822;28;20092;-49
2024/02/19 01:27:15;;;;;;;6.07;1.00;;;8.70;99.90;;;;;;5012842;28;20422;-51
2024/02/19 01:29:41;;;;;;;7.20;1.43;;;8.70;99.90;;;;;;5012437;28;20116;-50
2024/02/19 01:32:07;;;;;;;8.60;2.13;;;8.70;99.90;;;;;;5013178;28;20033;-52
2024/02/19 01:34:32;;;;;;;7.20;1.00;;;8.80;99.90;;;;;;5012719;28;20026;-50
2024/02/19 01:36:58;;;;;;;6.27;0.80;;;8.80;99.90;;;;;;5012638;28;20038;-51
2024/02/19 01:39:24;;;;;;;6.87;0.83;;;8.80;99.90;;;;;;5012448;28;20124;-50
2024/02/19 01:41:50;;;;;;;6.47;0.87;;;8.70;99.90;;;;;;5012708;28;20034;-50
2024/02/19 01:44:17;;;;;;;7.37;1.00;;;8.70;99.90;;;;;;5012420;28;20133;-49
2024/02/19 01:46:44;;;;;;;4.30;1.00;;;8.60;99.90;;;;;;5012480;28;20033;-50
2024/02/19 01:49:11;;;;;;;5.57;0.73;;;8.60;99.90;;;;;;5011024;28;20026;-51
2024/02/19 01:51:38;;;;;;;6.20;0.83;;;8.60;99.90;;;;;;5012443;28;20026;-50
2024/02/19 01:54:04;;;;;;;7.03;0.97;;;8.60;99.90;;;;;;5012628;28;20453;-50
2024/02/19 01:56:31;;;;;;;5.40;0.80;;;8.60;99.90;;;;;;5012399;28;20038;-49
2024/02/19 01:58:57;;;;;;;12.40;1.10;;;8.70;99.90;;;;;;5012078;28;20029;-50
2024/02/19 02:01:24;;;;;;;4.83;1.23;;;8.70;99.90;;;;;;5012206;28;20049;-49
2024/02/19 02:03:51;;;;;;;8.57;0.93;;;8.60;99.90;;;;;;5012125;28;20026;-49
2024/02/19 02:06:17;;;;;;;9.17;1.10;;;8.60;99.90;;;;;;5010821;28;20038;-51
2024/02/19 02:08:43;;;;;;;7.13;1.23;;;8.60;99.90;;;;;;5012198;28;20029;-50
2024/02/19 02:11:09;;;;;;;8.40;1.10;;;8.60;99.90;;;;;;5012120;28;20045;-49
2024/02/19 02:13:35;;;;;;;10.37;1.17;;;8.60;99.90;;;;;;5012088;28;20029;-50
2024/02/19 02:16:04;;;;;;;5.70;1.00;;;8.60;99.90;;;;;;5012082;28;20490;-51
2024/02/19 02:18:30;;;;;;;12.60;1.37;;;8.60;99.90;;;;;;5012032;28;20119;-50
2024/02/19 02:20:58;;;;;;;8.67;1.67;;;8.70;99.90;;;;;;5011791;28;20026;-49
2024/02/19 02:23:24;;;;;;;7.07;1.23;;;8.70;99.90;;;;;;5011981;28;20034;-50
2024/02/19 02:25:50;;;;;;;7.50;1.03;;;8.70;99.90;;;;;;5011676;28;20062;-52
2024/02/19 02:28:16;;;;;;;10.60;1.70;;;8.70;99.90;;;;;;5011882;28;20069;-49
2024/02/19 02:30:41;;;;;;;5.37;1.00;;;8.80;99.90;;;;;;5011624;28;20061;-51
2024/02/19 02:33:07;;;;;;;7.77;1.10;;;8.70;99.90;;;;;;5010715;28;20309;-51
2024/02/19 02:35:33;;;;;;;6.97;1.17;;;8.70;99.90;;;;;;5011679;28;20032;-49
2024/02/19 02:37:59;;;;;;;8.43;1.63;;;8.70;99.90;;;;;;5011956;28;20030;-50
2024/02/19 02:40:25;;;;;;;7.53;1.07;;;8.70;99.90;;;;;;5011707;28;20068;-49
2024/02/19 02:42:51;;;;;;;5.37;0.80;;;8.80;99.90;;;;;;5011925;28;20041;-49
2024/02/19 02:45:17;;;;;;;5.03;0.97;;;8.70;99.90;;;;;;5011629;28;20030;-49
2024/02/19 02:47:43;;;;;;;4.93;0.80;;;8.70;99.90;;;;;;5012008;28;20113;-50
2024/02/19 02:50:09;;;;;;;6.73;0.90;;;8.60;99.90;;;;;;5011470;28;20111;-50
2024/02/19 02:52:34;;;;;;;6.27;0.70;;;8.60;99.90;;;;;;5012138;28;20057;-49
2024/02/19 02:55:00;;;;;;;7.17;0.80;;;8.70;99.90;;;;;;5012024;28;20026;-51
2024/02/19 02:57:26;;;;;;;7.07;0.97;;;8.70;99.90;;;;;;5012112;28;20049;-49
2024/02/19 02:59:52;;;;;;;8.93;1.20;;;8.70;99.90;;;;;;5011808;28;20041;-52
2024/02/19 03:02:17;;;;;;;3.70;1.00;;;8.70;99.90;;;;;;5012093;28;20034;-50
2024/02/19 03:04:43;;;;;;;9.50;2.60;;;8.60;99.90;;;;;;5011987;28;20372;-54
2024/02/19 03:07:09;;;;;;;10.40;1.67;;;8.60;99.90;;;;;;5010883;28;20495;-50
2024/02/19 03:09:34;;;;;;;5.07;1.07;;;8.50;99.90;;;;;;5011924;28;20030;-50
2024/02/19 03:12:00;;;;;;;7.17;1.30;;;8.50;99.90;;;;;;5012912;28;20034;-50
2024/02/19 03:14:25;;;;;;;7.80;1.20;;;8.50;99.90;;;;;;5012118;28;20026;-54
2024/02/19 03:16:51;;;;;;;8.50;1.77;;;8.50;99.90;;;;;;5012729;28;20052;-49
2024/02/19 03:19:16;;;;;;;7.30;1.20;;;8.50;99.90;;;;;;5011613;28;20064;-48
2024/02/19 03:21:42;;;;;;;9.50;1.40;;;8.50;99.90;;;;;;5011339;28;20036;-48
2024/02/19 03:24:08;;;;;;;11.17;1.73;;;8.40;99.90;;;;;;5011226;28;20103;-48
2024/02/19 03:26:34;;;;;;;13.03;1.83;;;8.50;99.90;;;;;;5011221;28;20117;-52
2024/02/19 03:29:00;;;;;;;9.40;1.93;;;8.40;99.90;;;;;;5011084;28;20128;-52
2024/02/19 03:31:26;;;;;;;8.13;1.50;;;8.40;99.90;;;;;;5011263;28;20442;-53
2024/02/19 03:33:52;;;;;;;10.80;1.63;;;8.50;99.90;;;;;;5011214;28;20041;-54
2024/02/19 03:36:18;;;;;;;14.07;2.43;;;8.50;99.90;;;;;;5009990;28;20034;-53
2024/02/19 03:38:44;;;;;;;10.93;1.40;;;8.50;99.90;;;;;;5013774;28;20030;-50
2024/02/19 03:41:11;;;;;;;12.90;1.80;;;8.50;99.90;;;;;;5014847;28;20080;-53
2024/02/19 03:43:37;;;;;;;9.73;1.87;;;8.50;99.90;;;;;;5013428;28;20437;-50
2024/02/19 03:46:05;;;;;;;12.13;2.20;;;8.50;99.90;;;;;;5014691;28;20076;-49
2024/02/19 03:48:33;;;;;;;12.20;2.07;;;8.60;99.90;;;;;;5015019;28;20485;-49
2024/02/19 03:50:59;;;;;;;10.98;1.77;;;8.60;99.90;;;;;;5014453;28;20044;-49
2024/02/19 03:53:25;;;;;;;11.03;1.63;;;8.60;99.90;;;;;;5014718;28;20030;-49
2024/02/19 03:55:50;;;;;;;7.60;1.70;;;8.50;99.90;;;;;;5014666;28;20033;-49
2024/02/19 03:58:16;;;;;;;11.40;1.57;;;8.50;99.90;;;;;;5014516;28;20041;-52
2024/02/19 04:00:42;;;;;;;11.07;1.67;;;8.50;99.90;;;;;;5014300;28;20026;-50
2024/02/19 04:03:07;;;;;;;12.83;2.00;;;8.50;99.90;;;;;;5014381;28;20048;-49
2024/02/19 04:05:33;;;;;;;12.93;1.90;;;8.40;99.90;;;;;;5014291;28;20386;-50
2024/02/19 04:07:58;;;;;;;13.60;1.80;;;8.40;99.90;;;;;;5014485;28;20022;-49
2024/02/19 04:10:24;;;;;;;9.60;1.50;;;8.50;99.90;;;;;;5014123;28;20126;-49
2024/02/19 04:12:50;;;;;;;8.43;1.27;;;8.40;99.90;;;;;;5014289;28;20062;-48
2024/02/19 04:15:15;;;;;;;8.03;1.80;;;8.40;99.90;;;;;;5014220;28;20030;-49
2024/02/19 04:17:41;;;;;;;9.50;1.70;;;8.40;99.90;;;;;;5014094;28;20034;-49
2024/02/19 04:20:07;;;;;;;14.17;2.67;;;8.40;99.90;;;;;;5013915;28;20061;-50
2024/02/19 04:22:33;;;;;;;17.67;3.43;;;8.40;99.90;;;;;;5014129;28;20040;-49
2024/02/19 04:24:59;;;;;;;15.30;3.33;;;8.40;99.90;;;;;;5014040;28;20025;-50
2024/02/19 04:27:25;;;;;;;11.07;3.30;;;8.40;99.90;;;;;;5014046;28;20038;-50
2024/02/19 04:29:50;;;;;;;11.67;3.20;;;8.40;99.90;;;;;;5013636;28;20088;-49
2024/02/19 04:32:16;;;;;;;13.60;3.37;;;8.40;99.90;;;;;;5013974;28;20352;-49
2024/02/19 04:34:41;;;;;;;13.67;2.83;;;8.50;99.90;;;;;;5013822;28;20457;-49
2024/02/19 04:37:08;;;;;;;13.40;2.77;;;8.40;99.90;;;;;;5013845;28;20038;-51
2024/02/19 04:39:33;;;;;;;15.70;2.70;;;8.40;99.90;;;;;;5013563;28;20049;-49
2024/02/19 04:42:03;;;;;;;12.70;2.23;;;8.40;99.90;;;;;;5012545;28;20498;-49
2024/02/19 04:44:28;;;;;;;10.57;1.63;;;8.50;99.90;;;;;;5013597;28;20065;-48
2024/02/19 04:46:54;;;;;;;16.13;2.17;;;8.50;99.90;;;;;;5013433;28;20119;-50
2024/02/19 04:49:19;;;;;;;8.70;1.50;;;8.50;99.90;;;;;;5013107;28;20026;-49
2024/02/19 04:51:45;;;;;;;9.43;1.30;;;8.50;99.90;;;;;;5013677;28;20034;-53
2024/02/19 04:54:11;;;;;;;9.53;1.40;;;8.50;99.90;;;;;;5013569;28;20514;-50
2024/02/19 04:56:36;;;;;;;12.53;2.20;;;8.50;99.90;;;;;;5013522;28;20117;-49
2024/02/19 04:59:02;;;;;;;12.20;2.10;;;8.50;99.90;;;;;;5013236;28;20056;-48
2024/02/19 05:01:31;;;;;;;10.77;1.80;;;8.50;99.90;;;;;;5013093;28;20036;-52
2024/02/19 05:03:57;;;;;;;;;;;8.60;99.90;;;;;;5013751;28;20041;-50
2024/02/19 05:06:23;;;;;;;14.23;1.20;;;8.60;99.90;;;;;;5013266;28;19913;-48
2024/02/19 05:08:49;;;;;;;8.30;1.37;;;8.60;99.90;;;;;;5013106;28;20121;-49
2024/02/19 05:11:15;;;;;;;8.60;1.00;;;8.60;99.90;;;;;;5013164;28;20040;-49
2024/02/19 05:13:41;;;;;;;9.90;1.33;;;8.60;99.90;;;;;;5013174;28;20121;-49
2024/02/19 05:16:07;;;;;;;9.13;1.70;;;8.50;99.90;;;;;;5013099;28;20487;-51
2024/02/19 05:18:32;;;;;;;7.27;1.43;;;8.60;99.90;;;;;;5013033;28;20122;-48
2024/02/19 05:20:58;;;;;;;7.80;1.47;;;8.60;99.90;;;;;;5012836;28;20026;-49
2024/02/19 05:23:24;;;;;;;7.40;1.40;;;8.70;99.90;;;;;;5013054;28;20026;-49
2024/02/19 05:25:49;;;;;;;12.23;1.50;;;8.70;99.90;;;;;;5012828;28;20483;-49
2024/02/19 05:28:15;;;;;;;9.40;1.40;;;8.70;99.90;;;;;;5012859;28;20038;-49
2024/02/19 05:30:41;;;;;;;6.57;1.20;;;8.70;99.90;;;;;;5012525;28;20108;-51
2024/02/19 05:33:07;;;;;;;9.23;1.23;;;8.60;99.90;;;;;;5012914;28;20497;-50
2024/02/19 05:35:33;;;;;;;8.47;1.20;;;8.70;99.90;;;;;;5012746;28;20038;-49
2024/02/19 05:37:59;;;;;;;9.53;1.83;;;8.60;99.90;;;;;;5012827;28;20025;-49
2024/02/19 05:40:24;;;;;;;6.33;1.30;;;8.70;99.90;;;;;;5012617;28;20309;-49
2024/02/19 05:42:50;;;;;;;9.07;1.93;;;8.60;99.90;;;;;;5012578;28;20088;-49
2024/02/19 05:45:16;;;;;;;9.20;1.40;;;8.70;99.90;;;;;;5012817;28;20806;-49
2024/02/19 05:47:42;;;;;;;5.20;1.27;;;8.70;99.90;;;;;;5012520;28;20057;-49
2024/02/19 05:50:08;;;;;;;12.80;1.87;;;8.70;99.90;;;;;;5012217;28;20041;-48
2024/02/19 05:52:34;;;;;;;8.53;2.40;;;8.70;99.90;;;;;;5012528;28;20395;-49
2024/02/19 05:55:02;;;;;;;11.13;1.67;;;8.60;99.90;;;;;;5012435;28;20030;-50
2024/02/19 05:57:28;;;;;;;7.97;1.80;;;8.60;99.90;;;;;;5011232;28;20065;-49
2024/02/19 05:59:54;;;;;;;11.97;2.10;;;8.60;99.90;;;;;;5011530;28;20034;-49
2024/02/19 06:02:19;;;;;;;9.90;1.77;;;8.60;99.90;;;;;;5012373;28;20034;-49
2024/02/19 06:04:45;;;;;;;11.20;2.10;;;8.70;99.90;;;;;;5012234;28;20037;-49
2024/02/19 06:07:10;;;;;;;11.80;1.60;;;8.60;99.90;;;;;;5012266;28;20080;-49
2024/02/19 06:09:40;;;;;;;12.97;2.60;;;8.70;99.90;;;;;;5012027;28;20116;-49
2024/02/19 06:12:06;;;;;;;;;;;8.70;99.90;;;;;;5012671;28;20030;-49
2024/02/19 06:14:31;;;;;;;9.10;1.60;;;8.70;99.90;;;;;;5011902;28;20386;-49
2024/02/19 06:16:57;;;;;;;13.30;3.00;;;8.70;99.90;;;;;;5012218;28;20021;-49
2024/02/19 06:19:22;;;;;;;10.17;2.20;;;8.70;99.90;;;;;;5011943;28;20061;-52
2024/02/19 06:21:48;;;;;;;10.70;2.20;;;8.70;99.90;;;;;;5012110;28;20030;-51
2024/02/19 06:24:14;;;;;;;10.83;2.90;;;8.70;99.90;;;;;;5010865;28;20128;-49
2024/02/19 06:26:40;;;;;;;14.20;2.90;;;8.70;99.90;;;;;;5011888;28;20113;-50
2024/02/19 06:29:05;;;;;;;9.97;2.17;;;8.70;99.90;;;;;;5011621;28;20486;-50
2024/02/19 06:31:31;;;;;;;11.53;2.53;;;8.60;99.90;;;;;;5012029;28;20494;-51
2024/02/19 06:33:56;;;;;;;11.83;2.57;;;8.60;99.90;;;;;;5011952;28;20113;-53
2024/02/19 06:36:22;;;;;;;11.20;2.97;;;8.60;99.90;;;;;;5011980;28;20025;-50
2024/02/19 06:38:48;;;;;;;11.87;2.43;;;8.60;99.90;;;;;;5011701;28;20034;-50
2024/02/19 06:41:13;;;;;;;9.70;2.63;;;8.60;99.90;;;;;;5010749;28;20044;-51
2024/02/19 06:43:39;;;;;;;12.37;3.00;;;8.50;99.90;;;;;;5010557;28;20034;-50
2024/02/19 06:46:05;;;;;;;12.47;2.67;;;8.50;99.90;;;;;;5012084;28;20045;-52
2024/02/19 06:48:30;;;;;;;14.10;2.83;;;8.50;99.90;;;;;;5010725;28;20041;-50
2024/02/19 06:50:56;;;;;;;9.27;2.50;;;8.40;99.90;;;;;;5011693;28;20033;-50
2024/02/19 06:53:22;;;;;;;11.10;2.90;;;8.40;99.90;;;;;;5011849;28;20539;-49
2024/02/19 06:55:48;;;;;;;11.57;2.53;;;8.40;99.90;;;;;;5011746;28;20121;-53
2024/02/19 06:58:13;;;;;;;9.50;2.77;;;8.40;99.90;;;;;;5011754;28;20048;-52
2024/02/19 07:00:39;;;;;;;12.13;2.70;;;8.40;99.90;;;;;;5011514;28;20034;-50
2024/02/19 07:03:05;;;;;;;8.00;2.60;;;8.50;99.90;;;;;;5011695;28;20481;-51
2024/02/19 07:05:30;;;;;;;10.97;2.17;;;8.50;99.90;;;;;;5011951;28;20026;-51
2024/02/19 07:07:56;;;;;;;13.10;2.63;;;8.50;99.90;;;;;;5011613;28;20407;-50
2024/02/19 07:10:22;;;;;;;8.83;2.57;;;8.50;99.90;;;;;;5011434;28;20640;-51
2024/02/19 07:12:47;;;;;;;13.10;2.33;;;8.50;99.90;;;;;;5014600;28;20482;-51
2024/02/19 07:15:13;;;;;;;9.97;2.43;;;8.50;99.90;;;;;;5014026;28;20029;-50
2024/02/19 07:17:38;;;;;;;8.70;2.47;;;8.50;99.90;;;;;;5015404;28;20038;-50
2024/02/19 07:20:04;;;;;;;10.43;2.43;;;8.50;99.90;;;;;;5015146;28;20025;-49
2024/02/19 07:22:30;;;;;;;11.73;2.60;;;8.60;99.90;;;;;;5014046;28;20379;-51
2024/02/19 07:24:56;;;;;;;7.57;2.30;;;8.60;99.90;;;;;;5015133;28;20048;-49
2024/02/19 07:27:22;;;;;;;12.57;2.70;;;8.60;99.90;;;;;;5015166;28;20037;-51
2024/02/19 07:29:48;;;;;;;11.37;2.53;;;8.60;99.90;;;;;;5014830;28;20034;-51
2024/02/19 07:32:13;;;;;;;6.87;2.03;;;8.60;99.90;;;;;;5015200;28;20025;-51
2024/02/19 07:34:39;;;;;;;14.27;3.70;;;8.60;99.90;;;;;;5015014;28;20117;-53
2024/02/19 07:37:05;;;;;;;10.63;2.43;;;8.60;99.90;;;;;;5015025;28;20033;-51
2024/02/19 07:39:31;;;;;;;8.23;2.10;;;8.60;99.90;;;;;;5014632;28;20044;-50
2024/02/19 07:41:58;;;;;;;9.07;2.30;;;8.60;99.90;;;;;;5014848;28;20112;-48
2024/02/19 07:44:23;;;;;;;10.20;3.20;;;8.60;99.90;;;;;;5014736;28;20053;-50
2024/02/19 07:46:49;;;;;;;7.37;1.90;;;8.60;99.90;;;;;;5014751;28;20399;-51
2024/02/19 07:49:14;;;;;;;12.53;2.60;;;8.60;99.90;;;;;;5014556;28;20025;-51
2024/02/19 07:51:40;;;;;;;11.17;1.97;;;8.70;99.90;;;;;;5014754;28;20524;-51
2024/02/19 07:54:06;;;;;;;12.27;2.30;;;8.80;99.90;;;;;;5014618;28;20026;-51
2024/02/19 07:56:32;;;;;;;10.87;2.17;;;8.80;99.90;;;;;;5014594;28;20483;-50
2024/02/19 07:58:57;;;;;;;14.37;2.47;;;8.90;99.90;;;;;;5014362;28;20033;-50
2024/02/19 08:01:23;;;;;;;13.53;3.20;;;8.90;99.90;;;;;;5014482;28;20495;-49
2024/02/19 08:03:48;;;;;;;15.47;2.67;;;8.90;99.90;;;;;;5014381;28;20549;-51
2024/02/19 08:06:14;;;;;;;7.97;2.97;;;9.00;99.90;;;;;;5014483;28;20053;-52
2024/02/19 08:08:40;;;;;;;16.97;3.40;;;8.90;99.90;;;;;;5014323;28;20030;-50
2024/02/19 08:11:05;;;;;;;12.10;2.67;;;8.90;99.90;;;;;;5012874;28;20387;-48
2024/02/19 08:13:31;;;;;;;12.93;3.40;;;9.00;99.90;;;;;;5012807;28;20044;-49
2024/02/19 08:15:56;;;;;;;8.50;2.27;;;9.00;99.90;;;;;;5014154;28;20036;-48
2024/02/19 08:18:23;;;;;;;13.30;2.90;;;9.10;99.90;;;;;;5014196;28;20049;-49
2024/02/19 08:20:51;;;;;;;7.90;2.30;;;9.20;99.90;;;;;;5012736;28;20029;-50
2024/02/19 08:23:18;;;;;;;8.20;2.70;;;9.20;99.90;;;;;;5013373;28;20403;-49
2024/02/19 08:25:45;;;;;;;9.67;2.50;;;9.30;99.90;;;;;;5013883;28;20478;-49
2024/02/19 08:28:10;;;;;;;14.73;2.73;;;9.30;99.90;;;;;;5013941;28;20041;-49
2024/02/19 08:30:36;;;;;;;9.63;2.17;;;9.30;99.90;;;;;;5013773;28;20034;-50
2024/02/19 08:33:01;;;;;;;11.43;2.23;;;9.40;99.90;;;;;;5013862;28;20033;-52
2024/02/19 08:35:27;;;;;;;7.97;2.20;;;9.50;99.90;;;;;;5013818;28;20037;-53
2024/02/19 08:37:53;;;;;;;9.50;1.90;;;9.60;99.90;;;;;;5013762;28;20036;-50
2024/02/19 08:40:18;;;;;;;14.47;2.50;;;9.70;99.90;;;;;;5013556;28;20080;-52
2024/02/19 08:42:44;;;;;;;13.70;2.40;;;9.70;99.90;;;;;;5013836;28;20129;-52
2024/02/19 08:45:10;;;;;;;11.43;2.50;;;9.70;99.90;;;;;;5013608;28;20049;-50
2024/02/19 08:47:36;;;;;;;9.80;2.10;;;9.80;99.90;;;;;;5013846;28;20463;-53
2024/02/19 08:50:02;;;;;;;12.83;3.30;;;9.70;99.90;;;;;;5013336;28;20034;-53
2024/02/19 08:52:29;;;;;;;12.33;2.00;;;9.80;99.90;;;;;;5013422;28;20052;-50
2024/02/19 08:54:55;;;;;;;10.63;2.60;;;9.80;99.90;;;;;;5013412;28;20029;-53
2024/02/19 08:57:20;;;;;;;11.10;2.27;;;9.80;99.90;;;;;;5013404;28;20052;-49
2024/02/19 08:59:46;;;;;;;10.03;1.83;;;9.60;99.90;;;;;;5011871;28;20578;-50
2024/02/19 09:02:16;;;;;;;7.67;2.17;;;9.70;99.90;;;;;;5011869;28;20036;-52
2024/02/19 09:04:43;;;;;;;11.27;2.60;;;9.70;99.90;;;;;;5013209;28;20029;-53
2024/02/19 09:07:09;;;;;;;10.60;2.70;;;9.90;99.90;;;;;;5011791;28;20461;-53
2024/02/19 09:09:35;;;;;;;14.07;2.13;;;9.90;99.90;;;;;;5013052;28;20034;-54
2024/02/19 09:12:01;;;;;;;13.17;2.70;;;10.20;99.90;;;;;;5013244;28;20045;-53
2024/02/19 09:14:27;;;;;;;12.50;3.20;;;10.40;99.90;;;;;;5013053;28;20022;-51
2024/02/19 09:16:55;;;;;;;9.93;3.40;;;10.60;99.90;;;;;;5013130;28;20034;-51
2024/02/19 09:19:21;;;;;;;11.00;3.30;;;10.60;99.90;;;;;;5012601;28;20116;-49
2024/02/19 09:21:47;;;;;;;11.97;3.10;;;10.70;99.90;;;;;;5012944;28;20499;-49
2024/02/19 09:24:12;;;;;;;11.13;2.90;;;10.90;99.90;;;;;;5012959;28;20041;-54
2024/02/19 09:26:38;;;;;;;14.70;2.90;;;11.00;99.90;;;;;;5012873;28;20046;-49
2024/02/19 09:29:03;;;;;;;15.52;2.65;;;11.20;99.90;;;;;;5011278;28;20095;-49
2024/02/19 09:31:29;;;;;;;13.73;2.67;;;11.20;99.90;;;;;;5012697;28;20041;-49
2024/02/19 09:33:55;;;;;;;8.68;2.88;;;11.30;99.90;;;;;;5012611;28;20441;-49
2024/02/19 09:36:21;;;;;;;12.23;2.90;;;11.20;99.90;;;;;;5011637;28;20491;-50
2024/02/19 09:38:47;;;;;;;12.00;2.67;;;11.20;99.90;;;;;;5012547;28;20038;-50
2024/02/19 09:41:13;;;;;;;11.40;3.47;;;11.20;99.90;;;;;;5012595;28;20092;-47
2024/02/19 09:43:39;;;;;;;10.18;3.08;;;11.40;99.90;;;;;;5012559;28;20030;-48
2024/02/19 09:46:13;;;;;;;12.20;3.17;;;11.50;99.90;;;;;;5012394;28;20065;-50
2024/02/19 09:48:40;;;;;;;15.32;3.38;;;11.50;99.90;;;;;;5012470;28;20536;-49
2024/02/19 09:51:07;;;;;;;16.98;3.35;;;11.50;99.90;;;;;;5012173;28;20062;-48
2024/02/19 09:53:35;;;;;;;9.60;3.03;;;11.50;99.90;;;;;;5012573;28;20454;-49
2024/02/19 09:56:01;;;;;;;15.95;3.33;;;11.60;99.90;;;;;;5012343;28;20479;-49
2024/02/19 09:58:28;;;;;;;13.88;3.08;;;11.50;99.90;;;;;;5012348;28;20040;-51
2024/02/19 10:00:53;;;;;;;14.85;3.45;;;11.50;99.90;;;;;;5012111;28;20045;-49
2024/02/19 10:03:19;;;;;;;12.63;3.58;;;11.60;99.90;;;;;;5012281;28;20025;-50
2024/02/19 10:05:45;;;;;;;12.77;3.60;;;11.60;99.90;;;;;;5012109;28;20505;-50
2024/02/19 10:08:14;;;;;;;11.55;3.40;;;11.60;99.90;;;;;;5012231;28;20021;-49
2024/02/19 10:10:41;;;;;;;10.55;3.45;;;11.60;99.90;;;;;;5012050;28;20037;-52
2024/02/19 10:13:12;;;;;;;18.13;4.38;;;11.50;99.90;;;;;;5012304;28;20038;-49
2024/02/19 10:15:38;;;;;;;14.48;3.78;;;11.50;99.90;;;;;;5012300;28;20037;-49
2024/02/19 10:18:18;;;;;;;17.90;3.53;;;11.50;99.90;;;;;;5012052;28;20026;-48
2024/02/19 10:20:45;;;;;;;12.43;3.40;;;11.40;99.90;;;;;;5012025;28;20117;-49
2024/02/19 10:23:10;;;;;;;10.98;3.55;;;11.40;99.90;;;;;;5012052;28;20034;-49
2024/02/19 10:25:36;;;;;;;10.00;3.03;;;11.40;99.90;;;;;;5011991;28;20030;-48
2024/02/19 10:28:03;;;;;;;12.90;3.50;;;11.30;99.90;;;;;;5012657;28;20076;-48
2024/02/19 10:30:28;;;;;;;13.05;3.67;;;11.30;99.90;;;;;;5011924;28;20080;-49
2024/02/19 10:32:54;;;;;;;13.02;4.00;;;11.30;99.90;;;;;;5012142;28;20058;-48
2024/02/19 10:35:20;;;;;;;15.73;3.63;;;11.40;99.90;;;;;;5012063;28;20034;-49
2024/02/19 10:37:45;;;;;;;11.10;3.97;;;11.50;99.90;;;;;;5012039;28;20029;-49
2024/02/19 10:40:14;;;;;;;18.25;4.05;;;11.50;99.90;;;;;;5011546;28;20042;-51
2024/02/19 10:42:40;;;;;;;15.23;3.70;;;11.50;99.90;;;;;;5011879;28;20030;-51
2024/02/19 10:45:08;;;;;;;11.85;4.60;;;11.50;99.90;;;;;;5011563;28;20514;-50
2024/02/19 10:47:34;;;;;;;10.93;3.25;;;11.50;99.90;;;;;;5014599;28;20033;-48
2024/02/19 10:50:04;;;;;;;13.23;4.25;;;11.60;99.90;;;;;;5015542;28;20022;-49
2024/02/19 10:52:31;;;;;;;9.98;3.45;;;11.50;99.90;;;;;;5015856;28;20156;-49
2024/02/19 10:54:56;;;;;;;12.10;4.50;;;11.50;99.90;;;;;;5015628;28;20033;-49
2024/02/19 10:57:22;;;;;;;12.07;3.75;;;11.50;99.90;;;;;;5015676;28;20030;-48
2024/02/19 11:00:04;;;;;;;16.53;3.93;;;11.50;99.90;;;;;;5015420;28;20038;-49
2024/02/19 11:02:30;;;;;;;11.85;4.40;;;11.40;99.90;;;;;;5015672;28;20038;-49
2024/02/19 11:04:58;;;;;;;10.00;3.90;;;11.50;99.90;;;;;;5015552;28;20026;-50
2024/02/19 11:07:23;;;;;;;14.32;5.30;;;11.40;99.90;;;;;;5014302;28;20029;-49
2024/02/19 11:09:58;;;;;;;13.52;4.63;;;11.40;99.90;;;;;;5015453;28;20393;-53
2024/02/19 11:12:25;;;;;;;12.02;4.25;;;11.40;99.90;;;;;;5014264;28;20036;-49
2024/02/19 11:14:51;;;;;;;11.43;4.70;;;11.40;99.90;;;;;;5015371;28;20026;-50
2024/02/19 11:17:17;;;;;;;11.80;4.45;;;11.40;99.90;;;;;;5015452;28;20037;-48
2024/02/19 11:19:43;;;;;;;16.80;5.28;;;11.40;99.90;;;;;;5015121;28;20064;-48
2024/02/19 11:22:11;;;;;;;11.10;4.85;;;11.40;99.90;;;;;;5015358;28;20491;-51
2024/02/19 11:24:40;;;;;;;16.40;5.03;;;11.50;99.90;;;;;;5015163;28;20093;-53
2024/02/19 11:27:07;;;;;;;16.65;5.10;;;11.50;99.90;;;;;;5015329;28;20049;-49
2024/02/19 11:29:33;;;;;;;13.02;4.78;;;11.40;99.90;;;;;;5014840;28;20049;-49
2024/02/19 11:32:00;;;;;;;10.93;5.03;;;11.50;99.90;;;;;;5015118;28;20026;-48
2024/02/19 11:34:26;;;;;;;13.73;5.40;;;11.60;99.90;;;;;;5014975;28;20034;-48
2024/02/19 11:36:51;;;;;;;12.85;4.95;;;11.80;99.90;;;;;;5015051;28;20030;-48
2024/02/19 11:39:17;;;;;;;12.68;5.03;;;11.80;99.90;;;;;;5014585;28;20034;-49
2024/02/19 11:41:43;;;;;;;14.00;5.30;;;11.80;99.90;;;;;;5014983;28;20027;-49
2024/02/19 11:44:15;;;;;;;15.27;5.35;;;11.70;99.90;;;;;;5014782;28;20037;-48
2024/02/19 11:46:41;;;;;;;12.07;4.88;;;11.70;99.90;;;;;;5014805;28;20041;-48
2024/02/19 11:49:08;;;;;;;16.05;5.40;;;11.80;99.90;;;;;;5014492;28;20045;-48
2024/02/19 11:51:37;;;;;;;9.75;4.43;;;11.80;99.90;;;;;;5014750;28;20026;-49
2024/02/19 11:54:04;;;;;;;10.82;3.85;;;11.80;99.90;;;;;;5014708;28;20034;-48
2024/02/19 11:56:42;;;;;;;9.63;4.45;;;11.90;99.90;;;;;;5014645;28;20066;-48
2024/02/19 11:59:07;;;;;;;14.20;4.97;;;12.00;99.90;;;;;;5013248;28;20402;-48
2024/02/19 12:01:33;;;;;;;12.88;3.65;;;12.00;99.90;;;;;;5014499;28;20034;-48
2024/02/19 12:03:59;;;;;;;9.60;4.20;;;12.00;99.90;;;;;;5014400;28;20030;-50
2024/02/19 12:06:24;;;;;;;10.75;4.07;;;12.10;99.90;;;;;;5014261;28;20044;-48
2024/02/19 12:08:50;;;;;;;8.85;3.83;;;12.10;99.90;;;;;;5014382;28;20026;-48
2024/02/19 12:11:16;;;;;;;8.07;4.05;;;12.20;99.90;;;;;;5014400;28;20528;-49
2024/02/19 12:13:41;;;;;;;12.57;4.03;;;12.30;99.90;;;;;;5014146;28;20550;-49
2024/02/19 12:16:08;;;;;;;9.93;3.72;;;12.30;99.90;;;;;;5014270;28;20117;-49
2024/02/19 12:18:33;;;;;;;9.05;3.30;;;12.50;99.90;;;;;;5014175;28;20036;-48
2024/02/19 12:20:59;;;;;;;12.10;3.45;;;12.60;99.90;;;;;;5013839;28;20038;-49
2024/02/19 12:23:25;;;;;;;8.05;3.63;;;12.60;99.90;;;;;;5014065;28;20041;-48
2024/02/19 12:25:51;;;;;;;14.70;3.63;;;12.60;99.90;;;;;;5013956;28;20171;-50
2024/02/19 12:28:16;;;;;;;17.70;4.30;;;12.60;99.90;;;;;;5013975;28;20105;-49
2024/02/19 12:30:42;;;;;;;8.65;3.40;;;12.60;99.90;;;;;;5013654;28;20041;-49
2024/02/19 12:33:08;;;;;;;12.23;3.55;;;12.40;99.90;;;;;;5013947;28;20116;-53
2024/02/19 12:35:33;;;;;;;9.18;3.90;;;12.40;99.90;;;;;;5013750;28;20022;-49
2024/02/19 12:38:00;;;;;;;17.50;4.00;;;12.30;99.90;;;;;;5013979;28;20099;-49
2024/02/19 12:40:25;;;;;;;11.23;3.35;;;12.40;99.90;;;;;;5013457;28;20037;-50
2024/02/19 12:42:51;;;;;;;15.52;3.58;;;12.40;99.90;;;;;;5013742;28;20479;-49